Cunnamulla, Australia
Current Conditions -  °F | °C
As of 11:00 AM on Tuesday 21 Oct 2014 (Local Time) from YBCV Reporting Station
Clear Clear  
Wind Chill: 84°   Ceiling: Unl
Heat Index: 84°   Visibility: 6mi
Dew Point: 43°   Wind: 12mph
Humidity: 23%   Direction: 20°NNE
Pressure: 30.24"   Gusts: NA
Location:  28.07°S, 145.68°E
Report Text: YBCV 210100Z 02010KT CAVOK 29/06 Q1024
Loading
Personal Weather Stations






























Interactive Weather Map
Tropical Storm Tracking
New forecast layout! Learn more

10-Day Weather Forecast

Advertisements
Track Severe Weather on mobile